createdAt,value
2023-05-18T00:04:55.061Z,1019.80
2023-05-18T00:10:02.405Z,1019.82
2023-05-18T00:15:44.757Z,1019.76
2023-05-18T00:21:07.234Z,1019.71
2023-05-18T00:26:14.872Z,1019.70
2023-05-18T00:31:27.329Z,1019.61
2023-05-18T00:37:17.757Z,1019.58
2023-05-18T00:43:03.430Z,1019.59
2023-05-18T00:48:44.162Z,1019.56
2023-05-18T00:54:30.290Z,1019.55
2023-05-18T00:59:44.006Z,1019.50
2023-05-18T01:04:56.395Z,1019.43
2023-05-18T01:10:43.575Z,1019.42
2023-05-18T01:16:26.262Z,1019.38
2023-05-18T01:22:08.709Z,1019.35
2023-05-18T01:27:15.960Z,1019.29
2023-05-18T01:32:23.519Z,1019.23
2023-05-18T01:37:30.699Z,1019.24
2023-05-18T01:42:37.887Z,1019.22
2023-05-18T01:47:45.195Z,1019.22
2023-05-18T01:52:52.296Z,1019.23
2023-05-18T01:57:59.491Z,1019.17
2023-05-18T02:03:06.837Z,1019.13
2023-05-18T02:08:14.069Z,1019.13
2023-05-18T02:13:21.383Z,1019.09
2023-05-18T02:18:28.613Z,1019.11
2023-05-18T02:23:35.819Z,1019.04
2023-05-18T02:28:43.107Z,1019.04
2023-05-18T02:33:50.520Z,1019.05
2023-05-18T02:38:58.067Z,1019.04
2023-05-18T02:44:10.421Z,1018.95
2023-05-18T02:49:17.877Z,1018.92
2023-05-18T02:54:28.762Z,1018.91
2023-05-18T02:59:36.085Z,1018.88
2023-05-18T03:04:43.579Z,1018.92
2023-05-18T03:09:50.904Z,1018.95
2023-05-18T03:14:58.369Z,1018.95
2023-05-18T03:20:05.732Z,1018.93
2023-05-18T03:25:13.108Z,1018.94
2023-05-18T03:30:20.791Z,1018.98
2023-05-18T03:35:28.557Z,1018.99
2023-05-18T03:40:35.875Z,1018.97
2023-05-18T03:45:43.208Z,1018.98
2023-05-18T03:50:50.388Z,1018.99
2023-05-18T03:55:57.594Z,1018.97
2023-05-18T04:01:04.730Z,1018.99
2023-05-18T04:06:12.058Z,1018.97
2023-05-18T04:11:19.405Z,1018.94
2023-05-18T04:16:26.605Z,1018.98
2023-05-18T04:21:33.906Z,1019.02
2023-05-18T04:26:41.171Z,1019.05
2023-05-18T04:31:48.489Z,1019.06
2023-05-18T04:36:55.944Z,1019.05
2023-05-18T04:42:03.452Z,1019.00
2023-05-18T04:47:11.178Z,1019.03
2023-05-18T04:52:19.047Z,1019.05
2023-05-18T04:57:45.264Z,1019.12
2023-05-18T05:03:04.765Z,1019.18
2023-05-18T05:08:45.395Z,1019.10
2023-05-18T05:13:57.930Z,1019.11
2023-05-18T05:19:02.720Z,1019.12
2023-05-18T05:24:10.392Z,1019.10
2023-05-18T05:29:18.109Z,1019.14
2023-05-18T05:34:25.463Z,1019.14
2023-05-18T05:39:32.740Z,1019.19
2023-05-18T05:44:39.986Z,1019.14
2023-05-18T05:49:47.171Z,1019.12
2023-05-18T05:54:54.407Z,1019.15
2023-05-18T06:00:01.846Z,1019.18
2023-05-18T06:05:08.961Z,1019.15
2023-05-18T06:10:16.118Z,1019.21
2023-05-18T06:15:23.361Z,1019.25
2023-05-18T06:20:30.552Z,1019.24
2023-05-18T06:25:37.746Z,1019.26
2023-05-18T06:30:45.008Z,1019.33
2023-05-18T06:35:52.213Z,1019.35
2023-05-18T06:40:59.516Z,1019.36
2023-05-18T06:46:06.897Z,1019.31
2023-05-18T06:51:14.129Z,1019.25
2023-05-18T06:56:21.354Z,1019.33
2023-05-18T07:01:28.904Z,1019.31
2023-05-18T07:06:36.008Z,1019.33
2023-05-18T07:11:45.503Z,1019.39
2023-05-18T07:16:52.422Z,1019.34
2023-05-18T07:21:59.790Z,1019.34
2023-05-18T07:27:07.351Z,1019.32
2023-05-18T07:32:14.847Z,1019.32
2023-05-18T07:37:22.117Z,1019.40
2023-05-18T07:42:29.397Z,1019.37
2023-05-18T07:47:36.939Z,1019.33
2023-05-18T07:52:44.230Z,1019.32
2023-05-18T07:57:51.450Z,1019.35
2023-05-18T08:02:58.966Z,1019.32
2023-05-18T08:08:09.863Z,1019.35
2023-05-18T08:13:17.196Z,1019.32
2023-05-18T08:18:24.494Z,1019.35
2023-05-18T08:23:31.995Z,1019.32
2023-05-18T08:28:39.328Z,1019.36
2023-05-18T08:33:46.590Z,1019.35
2023-05-18T08:38:53.738Z,1019.37
2023-05-18T08:44:01.190Z,1019.40
2023-05-18T08:49:08.789Z,1019.41
2023-05-18T08:54:16.875Z,1019.37
2023-05-18T08:59:24.334Z,1019.30
2023-05-18T09:04:33.290Z,1019.21
2023-05-18T09:09:40.642Z,1019.21
2023-05-18T09:14:47.818Z,1019.15
2023-05-18T09:19:55.034Z,1019.14
2023-05-18T09:25:02.176Z,1019.18
2023-05-18T09:30:09.387Z,1019.19
2023-05-18T09:35:16.603Z,1019.20
2023-05-18T09:40:23.786Z,1019.14
2023-05-18T09:45:31.501Z,1019.18
2023-05-18T09:50:38.730Z,1019.24
2023-05-18T09:55:53.165Z,1019.13
2023-05-18T10:01:37.202Z,1019.12
2023-05-18T10:06:52.662Z,1019.16
2023-05-18T10:12:16.221Z,1019.12
2023-05-18T10:17:34.806Z,1019.06
2023-05-18T10:22:44.856Z,1019.00
2023-05-18T10:27:53.657Z,1018.99
2023-05-18T10:33:11.311Z,1019.00
2023-05-18T10:38:23.978Z,1018.99
2023-05-18T10:43:31.373Z,1018.95
2023-05-18T10:48:38.741Z,1018.90
2023-05-18T10:53:46.006Z,1018.91
2023-05-18T10:58:53.127Z,1018.88
2023-05-18T11:04:00.413Z,1018.89
2023-05-18T11:09:07.717Z,1018.83
2023-05-18T11:14:14.969Z,1018.84
2023-05-18T11:19:22.404Z,1018.90
2023-05-18T11:24:29.604Z,1018.89
2023-05-18T11:29:36.803Z,1018.79
2023-05-18T11:34:44.282Z,1018.76
2023-05-18T11:40:00.390Z,1018.81
2023-05-18T11:45:01.846Z,1018.74
2023-05-18T11:50:09.202Z,1018.70
2023-05-18T11:55:16.628Z,1018.74
2023-05-18T12:00:24.268Z,1018.74
2023-05-18T12:05:46.881Z,1018.76
2023-05-18T12:10:54.216Z,1018.73
2023-05-18T12:16:01.565Z,1018.73
2023-05-18T12:21:08.863Z,1018.68
2023-05-18T12:26:16.334Z,1018.65
2023-05-18T12:31:23.724Z,1018.72
2023-05-18T12:36:31.112Z,1018.68
2023-05-18T12:41:38.855Z,1018.69
2023-05-18T12:46:46.147Z,1018.64
2023-05-18T12:51:53.592Z,1018.63
2023-05-18T12:57:02.326Z,1018.62
2023-05-18T13:02:13.054Z,1018.62
2023-05-18T13:07:20.379Z,1018.57
2023-05-18T13:12:28.981Z,1018.52
2023-05-18T13:17:36.287Z,1018.57
2023-05-18T13:22:43.784Z,1018.58
2023-05-18T13:27:51.166Z,1018.55
2023-05-18T13:33:01.272Z,1018.59
2023-05-18T13:38:08.596Z,1018.56
2023-05-18T13:43:18.798Z,1018.51
2023-05-18T13:48:25.383Z,1018.59
2023-05-18T13:53:33.200Z,1018.63
2023-05-18T13:58:42.481Z,1018.62
2023-05-18T14:03:49.874Z,1018.63
2023-05-18T14:08:57.233Z,1018.56
2023-05-18T14:14:04.666Z,1018.58
2023-05-18T14:19:13.366Z,1018.58
2023-05-18T14:24:30.417Z,1018.58
2023-05-18T14:29:40.767Z,1018.54
2023-05-18T14:34:48.288Z,1018.56
2023-05-18T14:39:55.674Z,1018.57
2023-05-18T14:45:03.128Z,1018.54
2023-05-18T14:50:10.573Z,1018.53
2023-05-18T14:55:19.103Z,1018.54
2023-05-18T15:00:26.580Z,1018.56
2023-05-18T15:05:33.859Z,1018.47
2023-05-18T15:10:44.277Z,1018.51
2023-05-18T15:15:49.328Z,1018.53
2023-05-18T15:20:56.692Z,1018.53
2023-05-18T15:26:04.936Z,1018.53
2023-05-18T15:31:11.683Z,1018.51
2023-05-18T15:36:18.935Z,1018.52
2023-05-18T15:41:26.284Z,1018.46
2023-05-18T15:46:33.748Z,1018.46
2023-05-18T15:51:45.412Z,1018.49
2023-05-18T15:56:52.918Z,1018.42
2023-05-18T16:02:00.612Z,1018.45
2023-05-18T16:07:08.910Z,1018.44
2023-05-18T16:12:25.469Z,1018.43
2023-05-18T16:17:32.915Z,1018.48
2023-05-18T16:22:40.333Z,1018.45
2023-05-18T16:27:47.747Z,1018.38
2023-05-18T16:32:55.579Z,1018.46
2023-05-18T16:38:07.804Z,1018.53
2023-05-18T16:43:30.748Z,1018.56
2023-05-18T16:48:42.610Z,1018.60
2023-05-18T16:53:52.860Z,1018.57
2023-05-18T16:59:00.716Z,1018.58
2023-05-18T17:04:09.101Z,1018.60
2023-05-18T17:09:17.089Z,1018.55
2023-05-18T17:14:39.975Z,1018.57
2023-05-18T17:19:48.000Z,1018.61
2023-05-18T17:24:55.771Z,1018.68
2023-05-18T17:30:03.762Z,1018.69
2023-05-18T17:35:14.249Z,1018.67
2023-05-18T17:40:23.159Z,1018.69
2023-05-18T17:45:33.487Z,1018.71
2023-05-18T17:50:38.658Z,1018.75
2023-05-18T17:55:46.753Z,1018.79
2023-05-18T18:00:54.749Z,1018.83
2023-05-18T18:06:02.770Z,1018.86
2023-05-18T18:11:14.110Z,1018.84
2023-05-18T18:16:22.210Z,1018.81
2023-05-18T18:21:30.044Z,1018.87
2023-05-18T18:26:38.070Z,1018.94
2023-05-18T18:31:46.000Z,1018.96
2023-05-18T18:36:58.704Z,1018.94
2023-05-18T18:42:06.864Z,1018.92
2023-05-18T18:47:14.986Z,1018.96
2023-05-18T18:52:23.253Z,1018.93
2023-05-18T18:57:31.439Z,1018.98
2023-05-18T19:02:47.633Z,1019.07
2023-05-18T19:07:49.395Z,1019.13
2023-05-18T19:13:07.368Z,1019.14
2023-05-18T19:18:12.461Z,1019.17
2023-05-18T19:23:26.761Z,1019.22
2023-05-18T19:28:35.886Z,1019.29
2023-05-18T19:33:52.243Z,1019.37
2023-05-18T19:39:04.749Z,1019.35
2023-05-18T19:44:12.765Z,1019.48
2023-05-18T19:49:20.771Z,1019.48
2023-05-18T19:54:29.023Z,1019.47
2023-05-18T19:59:37.202Z,1019.49
2023-05-18T20:04:48.424Z,1019.47
2023-05-18T20:09:56.877Z,1019.48
2023-05-18T20:15:04.703Z,1019.51
2023-05-18T20:20:13.412Z,1019.49
2023-05-18T20:25:21.504Z,1019.51
2023-05-18T20:30:30.890Z,1019.57
2023-05-18T20:35:42.513Z,1019.54
2023-05-18T20:40:51.517Z,1019.56
2023-05-18T20:45:59.257Z,1019.52
2023-05-18T20:51:06.820Z,1019.53
2023-05-18T20:56:14.837Z,1019.54
2023-05-18T21:01:22.308Z,1019.64
2023-05-18T21:06:29.565Z,1019.70
2023-05-18T21:11:51.814Z,1019.70
2023-05-18T21:16:59.357Z,1019.64
2023-05-18T21:22:07.003Z,1019.62
2023-05-18T21:27:14.416Z,1019.60
2023-05-18T21:32:26.008Z,1019.57
2023-05-18T21:37:40.861Z,1019.54
2023-05-18T21:42:48.772Z,1019.50
2023-05-18T21:47:56.112Z,1019.53
2023-05-18T21:53:19.059Z,1019.56
2023-05-18T21:58:26.409Z,1019.51
2023-05-18T22:03:34.109Z,1019.53
2023-05-18T22:08:57.428Z,1019.51
2023-05-18T22:13:59.976Z,1019.49
2023-05-18T22:19:53.480Z,1019.44
2023-05-18T22:30:02.234Z,1019.46
2023-05-18T22:36:15.367Z,1019.42
2023-05-18T22:39:31.128Z,1019.49
2023-05-18T22:40:54.177Z,1019.41
2023-05-18T22:46:49.507Z,1019.44
2023-05-18T22:57:31.199Z,1019.36
2023-05-18T23:03:07.349Z,1019.34
2023-05-18T23:07:56.964Z,1019.30
2023-05-18T23:13:26.106Z,1019.24
2023-05-18T23:19:35.467Z,1019.24
2023-05-18T23:24:36.676Z,1019.22
2023-05-18T23:30:41.978Z,1019.17
2023-05-18T23:35:06.665Z,1019.14
2023-05-18T23:40:19.016Z,1019.13
2023-05-18T23:45:30.141Z,1019.06
2023-05-18T23:50:38.647Z,1019.06
2023-05-18T23:55:58.826Z,1019.03
